sensor_id;sensor_type;location;lat;lon;timestamp;pressure;altitude;pressure_sealevel;temperature;humidity
7297;BME280;40758;54.038;11.684;2024-01-25T00:00:46;101292.81;;;6.13;100.00
7297;BME280;40758;54.038;11.684;2024-01-25T00:03:13;101294.03;;;6.10;100.00
7297;BME280;40758;54.038;11.684;2024-01-25T00:05:40;101295.72;;;6.11;100.00
7297;BME280;40758;54.038;11.684;2024-01-25T00:08:07;101286.13;;;6.09;100.00
7297;BME280;40758;54.038;11.684;2024-01-25T00:10:33;101297.03;;;6.16;100.00
7297;BME280;40758;54.038;11.684;2024-01-25T00:13:01;101295.81;;;6.18;100.00
7297;BME280;40758;54.038;11.684;2024-01-25T00:15:28;101292.28;;;6.18;100.00
7297;BME280;40758;54.038;11.684;2024-01-25T00:17:55;101293.78;;;6.20;100.00
7297;BME280;40758;54.038;11.684;2024-01-25T00:20:23;101282.53;;;6.17;100.00
7297;BME280;40758;54.038;11.684;2024-01-25T00:22:50;101291.94;;;6.21;100.00
7297;BME280;40758;54.038;11.684;2024-01-25T00:25:17;101278.69;;;6.11;100.00
7297;BME280;40758;54.038;11.684;2024-01-25T00:27:43;101288.44;;;6.12;100.00
7297;BME280;40758;54.038;11.684;2024-01-25T00:30:11;101281.19;;;6.12;100.00
7297;BME280;40758;54.038;11.684;2024-01-25T00:32:38;101286.59;;;6.12;100.00
7297;BME280;40758;54.038;11.684;2024-01-25T00:35:06;101278.16;;;6.16;100.00
7297;BME280;40758;54.038;11.684;2024-01-25T00:37:33;101279.00;;;6.16;100.00
7297;BME280;40758;54.038;11.684;2024-01-25T00:40:00;101291.66;;;6.16;100.00
7297;BME280;40758;54.038;11.684;2024-01-25T00:42:28;101287.81;;;6.10;100.00
7297;BME280;40758;54.038;11.684;2024-01-25T00:44:55;101287.50;;;6.05;100.00
7297;BME280;40758;54.038;11.684;2024-01-25T00:47:22;101256.38;;;5.94;100.00
7297;BME280;40758;54.038;11.684;2024-01-25T00:49:49;101292.69;;;6.06;100.00
7297;BME280;40758;54.038;11.684;2024-01-25T00:52:16;101288.34;;;6.05;100.00
7297;BME280;40758;54.038;11.684;2024-01-25T00:54:44;101282.63;;;6.00;100.00
7297;BME280;40758;54.038;11.684;2024-01-25T00:57:11;101289.06;;;5.99;100.00
7297;BME280;40758;54.038;11.684;2024-01-25T00:59:38;101298.81;;;6.00;100.00
7297;BME280;40758;54.038;11.684;2024-01-25T01:02:06;101311.94;;;6.03;100.00
7297;BME280;40758;54.038;11.684;2024-01-25T01:04:36;101305.53;;;6.04;100.00
7297;BME280;40758;54.038;11.684;2024-01-25T01:07:14;101314.28;;;6.06;100.00
7297;BME280;40758;54.038;11.684;2024-01-25T01:09:41;101307.50;;;6.10;100.00
7297;BME280;40758;54.038;11.684;2024-01-25T01:12:08;101307.81;;;6.16;100.00
7297;BME280;40758;54.038;11.684;2024-01-25T01:14:35;101312.53;;;6.13;100.00
7297;BME280;40758;54.038;11.684;2024-01-25T01:17:01;101287.81;;;6.10;100.00
7297;BME280;40758;54.038;11.684;2024-01-25T01:19:28;101309.50;;;6.17;100.00
7297;BME280;40758;54.038;11.684;2024-01-25T01:21:55;101299.00;;;6.22;100.00
7297;BME280;40758;54.038;11.684;2024-01-25T01:24:22;101295.09;;;6.24;100.00
7297;BME280;40758;54.038;11.684;2024-01-25T01:26:48;101305.59;;;6.19;100.00
7297;BME280;40758;54.038;11.684;2024-01-25T01:29:17;101297.69;;;6.18;100.00
7297;BME280;40758;54.038;11.684;2024-01-25T01:31:45;101295.00;;;6.18;100.00
7297;BME280;40758;54.038;11.684;2024-01-25T01:34:12;101290.13;;;6.13;100.00
7297;BME280;40758;54.038;11.684;2024-01-25T01:36:40;101305.25;;;6.22;100.00
7297;BME280;40758;54.038;11.684;2024-01-25T01:39:07;101295.94;;;6.25;100.00
7297;BME280;40758;54.038;11.684;2024-01-25T01:41:33;101273.72;;;6.23;100.00
7297;BME280;40758;54.038;11.684;2024-01-25T01:44:00;101319.06;;;6.19;100.00
7297;BME280;40758;54.038;11.684;2024-01-25T01:46:37;101317.53;;;6.25;100.00
7297;BME280;40758;54.038;11.684;2024-01-25T01:49:07;101329.31;;;6.24;100.00
7297;BME280;40758;54.038;11.684;2024-01-25T01:51:35;101338.44;;;6.23;100.00
7297;BME280;40758;54.038;11.684;2024-01-25T01:54:03;101331.06;;;6.17;100.00
7297;BME280;40758;54.038;11.684;2024-01-25T01:56:32;101346.53;;;6.23;100.00
7297;BME280;40758;54.038;11.684;2024-01-25T01:59:00;101345.19;;;6.19;100.00
7297;BME280;40758;54.038;11.684;2024-01-25T02:01:28;101361.03;;;6.22;100.00
7297;BME280;40758;54.038;11.684;2024-01-25T02:03:55;101364.91;;;6.19;100.00
7297;BME280;40758;54.038;11.684;2024-01-25T02:06:26;101365.75;;;6.20;100.00
7297;BME280;40758;54.038;11.684;2024-01-25T02:08:53;101366.13;;;6.17;100.00
7297;BME280;40758;54.038;11.684;2024-01-25T02:11:20;101373.38;;;6.16;100.00
7297;BME280;40758;54.038;11.684;2024-01-25T02:13:46;101382.97;;;6.19;100.00
7297;BME280;40758;54.038;11.684;2024-01-25T02:16:13;101373.91;;;6.11;100.00
7297;BME280;40758;54.038;11.684;2024-01-25T02:18:44;101387.38;;;6.11;100.00
7297;BME280;40758;54.038;11.684;2024-01-25T02:21:11;101385.22;;;6.07;100.00
7297;BME280;40758;54.038;11.684;2024-01-25T02:23:39;101392.78;;;6.11;100.00
7297;BME280;40758;54.038;11.684;2024-01-25T02:26:07;101375.78;;;6.03;100.00
7297;BME280;40758;54.038;11.684;2024-01-25T02:28:34;101376.94;;;6.08;100.00
7297;BME280;40758;54.038;11.684;2024-01-25T02:31:02;101375.25;;;6.07;100.00
7297;BME280;40758;54.038;11.684;2024-01-25T02:33:29;101371.72;;;6.07;100.00
7297;BME280;40758;54.038;11.684;2024-01-25T02:35:57;101381.84;;;6.05;100.00
7297;BME280;40758;54.038;11.684;2024-01-25T02:38:24;101390.47;;;6.00;100.00
7297;BME280;40758;54.038;11.684;2024-01-25T02:40:51;101382.50;;;6.07;100.00
7297;BME280;40758;54.038;11.684;2024-01-25T02:43:17;101387.94;;;5.99;100.00
7297;BME280;40758;54.038;11.684;2024-01-25T02:45:44;101395.19;;;5.90;100.00
7297;BME280;40758;54.038;11.684;2024-01-25T02:48:11;101394.03;;;5.84;100.00
7297;BME280;40758;54.038;11.684;2024-01-25T02:50:38;101403.50;;;5.80;100.00
7297;BME280;40758;54.038;11.684;2024-01-25T02:53:05;101400.31;;;5.77;100.00
7297;BME280;40758;54.038;11.684;2024-01-25T02:55:32;101416.81;;;5.74;100.00
7297;BME280;40758;54.038;11.684;2024-01-25T02:57:58;101402.53;;;5.65;100.00
7297;BME280;40758;54.038;11.684;2024-01-25T03:00:26;101416.84;;;5.66;100.00
7297;BME280;40758;54.038;11.684;2024-01-25T03:02:53;101416.00;;;5.65;100.00
7297;BME280;40758;54.038;11.684;2024-01-25T03:05:19;101426.63;;;5.58;100.00
7297;BME280;40758;54.038;11.684;2024-01-25T03:07:46;101433.03;;;5.57;100.00
7297;BME280;40758;54.038;11.684;2024-01-25T03:10:14;101434.19;;;5.55;100.00
7297;BME280;40758;54.038;11.684;2024-01-25T03:12:42;101427.81;;;5.48;100.00
7297;BME280;40758;54.038;11.684;2024-01-25T03:15:11;101432.03;;;5.50;100.00
7297;BME280;40758;54.038;11.684;2024-01-25T03:17:38;101417.22;;;5.38;100.00
7297;BME280;40758;54.038;11.684;2024-01-25T03:20:06;101434.22;;;5.39;100.00
7297;BME280;40758;54.038;11.684;2024-01-25T03:22:33;101451.56;;;5.44;100.00
7297;BME280;40758;54.038;11.684;2024-01-25T03:25:00;101446.50;;;5.49;100.00
7297;BME280;40758;54.038;11.684;2024-01-25T03:27:27;101455.28;;;5.51;100.00
7297;BME280;40758;54.038;11.684;2024-01-25T03:29:53;101457.47;;;5.48;100.00
7297;BME280;40758;54.038;11.684;2024-01-25T03:32:21;101468.75;;;5.51;100.00
7297;BME280;40758;54.038;11.684;2024-01-25T03:34:48;101463.00;;;5.54;100.00
7297;BME280;40758;54.038;11.684;2024-01-25T03:37:16;101450.53;;;5.61;100.00
7297;BME280;40758;54.038;11.684;2024-01-25T03:39:43;101458.75;;;5.68;100.00
7297;BME280;40758;54.038;11.684;2024-01-25T03:42:10;101464.00;;;5.70;100.00
7297;BME280;40758;54.038;11.684;2024-01-25T03:44:36;101449.50;;;5.71;100.00
7297;BME280;40758;54.038;11.684;2024-01-25T03:47:04;101473.72;;;5.79;100.00
7297;BME280;40758;54.038;11.684;2024-01-25T03:49:30;101474.78;;;5.70;100.00
7297;BME280;40758;54.038;11.684;2024-01-25T03:51:58;101485.56;;;5.70;100.00
7297;BME280;40758;54.038;11.684;2024-01-25T03:54:25;101486.88;;;5.74;100.00
7297;BME280;40758;54.038;11.684;2024-01-25T03:56:52;101488.91;;;5.72;100.00
7297;BME280;40758;54.038;11.684;2024-01-25T03:59:18;101493.44;;;5.79;100.00
7297;BME280;40758;54.038;11.684;2024-01-25T04:01:46;101507.09;;;5.78;100.00
7297;BME280;40758;54.038;11.684;2024-01-25T04:04:15;101520.22;;;5.81;100.00
7297;BME280;40758;54.038;11.684;2024-01-25T04:06:43;101510.75;;;5.85;100.00
7297;BME280;40758;54.038;11.684;2024-01-25T04:09:10;101509.94;;;5.84;100.00
7297;BME280;40758;54.038;11.684;2024-01-25T04:11:37;101515.31;;;5.84;100.00
7297;BME280;40758;54.038;11.684;2024-01-25T04:14:04;101517.34;;;5.82;100.00
7297;BME280;40758;54.038;11.684;2024-01-25T04:16:32;101523.59;;;5.83;100.00
7297;BME280;40758;54.038;11.684;2024-01-25T04:19:00;101526.78;;;5.78;100.00
7297;BME280;40758;54.038;11.684;2024-01-25T04:21:28;101522.59;;;5.76;100.00
7297;BME280;40758;54.038;11.684;2024-01-25T04:23:54;101529.34;;;5.80;100.00
7297;BME280;40758;54.038;11.684;2024-01-25T04:26:21;101532.03;;;5.80;100.00
7297;BME280;40758;54.038;11.684;2024-01-25T04:28:49;101540.94;;;5.80;100.00
7297;BME280;40758;54.038;11.684;2024-01-25T04:31:16;101537.41;;;5.80;100.00
7297;BME280;40758;54.038;11.684;2024-01-25T04:33:44;101548.34;;;5.78;100.00
7297;BME280;40758;54.038;11.684;2024-01-25T04:36:14;101533.72;;;5.81;100.00
7297;BME280;40758;54.038;11.684;2024-01-25T04:38:41;101539.94;;;5.73;100.00
7297;BME280;40758;54.038;11.684;2024-01-25T04:41:08;101559.16;;;5.70;100.00
7297;BME280;40758;54.038;11.684;2024-01-25T04:43:36;101556.63;;;5.69;100.00
7297;BME280;40758;54.038;11.684;2024-01-25T04:46:04;101554.09;;;5.75;100.00
7297;BME280;40758;54.038;11.684;2024-01-25T04:48:34;101565.88;;;5.74;100.00
7297;BME280;40758;54.038;11.684;2024-01-25T04:51:01;101572.63;;;5.70;100.00
7297;BME280;40758;54.038;11.684;2024-01-25T04:53:28;101583.38;;;5.78;100.00
7297;BME280;40758;54.038;11.684;2024-01-25T04:55:54;101573.44;;;5.79;100.00
7297;BME280;40758;54.038;11.684;2024-01-25T04:58:22;101597.19;;;5.83;100.00
7297;BME280;40758;54.038;11.684;2024-01-25T05:00:49;101606.13;;;5.84;100.00
7297;BME280;40758;54.038;11.684;2024-01-25T05:03:18;101612.88;;;5.88;100.00
7297;BME280;40758;54.038;11.684;2024-01-25T05:05:45;101607.66;;;5.86;100.00
7297;BME280;40758;54.038;11.684;2024-01-25T05:08:12;101610.16;;;5.88;100.00
7297;BME280;40758;54.038;11.684;2024-01-25T05:10:39;101613.19;;;5.85;100.00
7297;BME280;40758;54.038;11.684;2024-01-25T05:13:06;101613.53;;;5.82;100.00
7297;BME280;40758;54.038;11.684;2024-01-25T05:15:33;101639.31;;;5.84;100.00
7297;BME280;40758;54.038;11.684;2024-01-25T05:18:01;101633.25;;;5.82;100.00
7297;BME280;40758;54.038;11.684;2024-01-25T05:20:29;101629.34;;;5.85;100.00
7297;BME280;40758;54.038;11.684;2024-01-25T05:23:00;101623.13;;;5.84;100.00
7297;BME280;40758;54.038;11.684;2024-01-25T05:25:27;101633.06;;;5.84;100.00
7297;BME280;40758;54.038;11.684;2024-01-25T05:27:55;101653.28;;;5.88;100.00
7297;BME280;40758;54.038;11.684;2024-01-25T05:30:23;101637.13;;;5.80;100.00
7297;BME280;40758;54.038;11.684;2024-01-25T05:32:50;101653.78;;;5.83;100.00
7297;BME280;40758;54.038;11.684;2024-01-25T05:35:17;101656.50;;;5.83;100.00
7297;BME280;40758;54.038;11.684;2024-01-25T05:37:45;101642.53;;;5.80;100.00
7297;BME280;40758;54.038;11.684;2024-01-25T05:40:12;101654.47;;;5.77;100.00
7297;BME280;40758;54.038;11.684;2024-01-25T05:42:39;101674.19;;;5.86;100.00
7297;BME280;40758;54.038;11.684;2024-01-25T05:45:07;101663.06;;;5.81;100.00
7297;BME280;40758;54.038;11.684;2024-01-25T05:47:35;101679.25;;;5.81;100.00
7297;BME280;40758;54.038;11.684;2024-01-25T05:50:03;101680.41;;;5.78;100.00
7297;BME280;40758;54.038;11.684;2024-01-25T05:52:31;101684.47;;;5.82;100.00
7297;BME280;40758;54.038;11.684;2024-01-25T05:54:58;101675.00;;;5.78;100.00
7297;BME280;40758;54.038;11.684;2024-01-25T05:57:31;101696.56;;;5.78;100.00
7297;BME280;40758;54.038;11.684;2024-01-25T05:59:59;101696.09;;;5.75;100.00
7297;BME280;40758;54.038;11.684;2024-01-25T06:02:26;101680.91;;;5.74;100.00
7297;BME280;40758;54.038;11.684;2024-01-25T06:04:53;101694.72;;;5.79;100.00
7297;BME280;40758;54.038;11.684;2024-01-25T06:07:20;101687.66;;;5.78;100.00
7297;BME280;40758;54.038;11.684;2024-01-25T06:09:47;101713.59;;;5.79;100.00
7297;BME280;40758;54.038;11.684;2024-01-25T06:12:14;101695.06;;;5.76;100.00
7297;BME280;40758;54.038;11.684;2024-01-25T06:14:41;101697.94;;;5.74;100.00
7297;BME280;40758;54.038;11.684;2024-01-25T06:17:08;101704.47;;;5.72;100.00
7297;BME280;40758;54.038;11.684;2024-01-25T06:19:35;101683.94;;;5.71;100.00
7297;BME280;40758;54.038;11.684;2024-01-25T06:22:02;101703.81;;;5.70;100.00
7297;BME280;40758;54.038;11.684;2024-01-25T06:24:29;101692.69;;;5.65;100.00
7297;BME280;40758;54.038;11.684;2024-01-25T06:26:56;101720.47;;;5.65;100.00
7297;BME280;40758;54.038;11.684;2024-01-25T06:29:23;101721.66;;;5.63;100.00
7297;BME280;40758;54.038;11.684;2024-01-25T06:31:50;101721.13;;;5.59;100.00
7297;BME280;40758;54.038;11.684;2024-01-25T06:34:18;101718.63;;;5.57;100.00
7297;BME280;40758;54.038;11.684;2024-01-25T06:36:45;101740.47;;;5.54;100.00
7297;BME280;40758;54.038;11.684;2024-01-25T06:39:11;101731.69;;;5.44;100.00
7297;BME280;40758;54.038;11.684;2024-01-25T06:41:38;101746.88;;;5.45;100.00
7297;BME280;40758;54.038;11.684;2024-01-25T06:44:05;101739.78;;;5.44;100.00
7297;BME280;40758;54.038;11.684;2024-01-25T06:46:31;101734.03;;;5.39;100.00
7297;BME280;40758;54.038;11.684;2024-01-25T06:48:59;101754.59;;;5.40;100.00
7297;BME280;40758;54.038;11.684;2024-01-25T06:51:26;101750.34;;;5.29;100.00
7297;BME280;40758;54.038;11.684;2024-01-25T06:53:53;101742.56;;;5.18;100.00
7297;BME280;40758;54.038;11.684;2024-01-25T06:56:20;101749.31;;;5.22;100.00
7297;BME280;40758;54.038;11.684;2024-01-25T06:58:47;101769.66;;;5.17;100.00
7297;BME280;40758;54.038;11.684;2024-01-25T07:01:20;101768.56;;;5.10;100.00
7297;BME280;40758;54.038;11.684;2024-01-25T07:03:48;101798.56;;;5.15;100.00
7297;BME280;40758;54.038;11.684;2024-01-25T07:06:18;101796.94;;;5.22;100.00
7297;BME280;40758;54.038;11.684;2024-01-25T07:08:45;101806.91;;;5.29;100.00
7297;BME280;40758;54.038;11.684;2024-01-25T07:11:12;101808.59;;;5.30;100.00
7297;BME280;40758;54.038;11.684;2024-01-25T07:13:41;101807.09;;;5.36;100.00
7297;BME280;40758;54.038;11.684;2024-01-25T07:16:08;101812.13;;;5.39;100.00
7297;BME280;40758;54.038;11.684;2024-01-25T07:18:35;101820.22;;;5.39;100.00
7297;BME280;40758;54.038;11.684;2024-01-25T07:21:02;101822.59;;;5.42;100.00
7297;BME280;40758;54.038;11.684;2024-01-25T07:23:30;101838.78;;;5.42;100.00
7297;BME280;40758;54.038;11.684;2024-01-25T07:25:57;101841.09;;;5.37;100.00
7297;BME280;40758;54.038;11.684;2024-01-25T07:28:23;101838.56;;;5.36;100.00
7297;BME280;40758;54.038;11.684;2024-01-25T07:30:50;101837.41;;;5.38;100.00
7297;BME280;40758;54.038;11.684;2024-01-25T07:33:18;101848.34;;;5.37;100.00
7297;BME280;40758;54.038;11.684;2024-01-25T07:35:45;101844.97;;;5.34;100.00
7297;BME280;40758;54.038;11.684;2024-01-25T07:38:12;101847.81;;;5.33;100.00
7297;BME280;40758;54.038;11.684;2024-01-25T07:40:39;101865.69;;;5.34;100.00
7297;BME280;40758;54.038;11.684;2024-01-25T07:43:06;101867.03;;;5.38;100.00
7297;BME280;40758;54.038;11.684;2024-01-25T07:45:33;101873.63;;;5.44;100.00
7297;BME280;40758;54.038;11.684;2024-01-25T07:48:00;101869.91;;;5.45;100.00
7297;BME280;40758;54.038;11.684;2024-01-25T07:50:40;101878.22;;;5.51;100.00
7297;BME280;40758;54.038;11.684;2024-01-25T07:53:07;101875.84;;;5.48;100.00
7297;BME280;40758;54.038;11.684;2024-01-25T07:55:34;101870.28;;;5.50;100.00
7297;BME280;40758;54.038;11.684;2024-01-25T07:58:02;101876.88;;;5.55;100.00
7297;BME280;40758;54.038;11.684;2024-01-25T08:00:28;101870.16;;;5.51;100.00
7297;BME280;40758;54.038;11.684;2024-01-25T08:02:55;101882.25;;;5.55;100.00
7297;BME280;40758;54.038;11.684;2024-01-25T08:05:22;101859.38;;;5.51;100.00
7297;BME280;40758;54.038;11.684;2024-01-25T08:08:02;101880.38;;;5.48;100.00
7297;BME280;40758;54.038;11.684;2024-01-25T08:10:29;101889.97;;;5.50;100.00
7297;BME280;40758;54.038;11.684;2024-01-25T08:12:55;101893.38;;;5.52;100.00
7297;BME280;40758;54.038;11.684;2024-01-25T08:15:32;101888.84;;;5.53;100.00
7297;BME280;40758;54.038;11.684;2024-01-25T08:17:59;101888.84;;;5.53;100.00
7297;BME280;40758;54.038;11.684;2024-01-25T08:20:26;101871.50;;;5.55;100.00
7297;BME280;40758;54.038;11.684;2024-01-25T08:22:53;101876.50;;;5.50;100.00
7297;BME280;40758;54.038;11.684;2024-01-25T08:25:20;101886.63;;;5.48;100.00
7297;BME280;40758;54.038;11.684;2024-01-25T08:27:47;101882.06;;;5.49;100.00
7297;BME280;40758;54.038;11.684;2024-01-25T08:30:14;101878.63;;;5.39;100.00
7297;BME280;40758;54.038;11.684;2024-01-25T08:32:41;101893.47;;;5.43;100.00
7297;BME280;40758;54.038;11.684;2024-01-25T08:35:08;101883.91;;;5.48;100.00
7297;BME280;40758;54.038;11.684;2024-01-25T08:37:35;101899.63;;;5.53;100.00
7297;BME280;40758;54.038;11.684;2024-01-25T08:40:05;101897.28;;;5.58;100.00
7297;BME280;40758;54.038;11.684;2024-01-25T08:42:36;101906.25;;;5.67;100.00
7297;BME280;40758;54.038;11.684;2024-01-25T08:45:04;101917.06;;;5.75;100.00
7297;BME280;40758;54.038;11.684;2024-01-25T08:47:32;101917.44;;;5.80;100.00
7297;BME280;40758;54.038;11.684;2024-01-25T08:49:59;101921.47;;;5.84;100.00
7297;BME280;40758;54.038;11.684;2024-01-25T08:52:26;101939.88;;;5.88;100.00
7297;BME280;40758;54.038;11.684;2024-01-25T08:54:53;101947.78;;;5.90;100.00
7297;BME280;40758;54.038;11.684;2024-01-25T08:57:19;101937.84;;;5.91;100.00
7297;BME280;40758;54.038;11.684;2024-01-25T08:59:47;101947.97;;;5.88;100.00
7297;BME280;40758;54.038;11.684;2024-01-25T09:02:15;101969.09;;;5.93;100.00
7297;BME280;40758;54.038;11.684;2024-01-25T09:04:42;101961.50;;;5.97;100.00
7297;BME280;40758;54.038;11.684;2024-01-25T09:07:10;101963.41;;;6.04;100.00
7297;BME280;40758;54.038;11.684;2024-01-25T09:09:37;101966.59;;;6.08;100.00
7297;BME280;40758;54.038;11.684;2024-01-25T09:12:06;101965.75;;;6.07;100.00
7297;BME280;40758;54.038;11.684;2024-01-25T09:14:35;101964.44;;;6.11;100.00
7297;BME280;40758;54.038;11.684;2024-01-25T09:17:03;101959.06;;;6.11;100.00
7297;BME280;40758;54.038;11.684;2024-01-25T09:19:30;101967.81;;;6.13;100.00
7297;BME280;40758;54.038;11.684;2024-01-25T09:21:57;101968.16;;;6.10;100.00
7297;BME280;40758;54.038;11.684;2024-01-25T09:24:28;101970.31;;;6.07;100.00
7297;BME280;40758;54.038;11.684;2024-01-25T09:26:56;101959.50;;;5.99;100.00
7297;BME280;40758;54.038;11.684;2024-01-25T09:29:23;101981.81;;;6.17;100.00
7297;BME280;40758;54.038;11.684;2024-01-25T09:31:51;101973.53;;;6.10;100.00
7297;BME280;40758;54.038;11.684;2024-01-25T09:34:17;101984.69;;;6.16;100.00
7297;BME280;40758;54.038;11.684;2024-01-25T09:36:45;101988.75;;;6.20;100.00
7297;BME280;40758;54.038;11.684;2024-01-25T09:39:12;101985.84;;;6.55;100.00
7297;BME280;40758;54.038;11.684;2024-01-25T09:41:39;101984.22;;;6.79;100.00
7297;BME280;40758;54.038;11.684;2024-01-25T09:44:09;101983.88;;;6.82;100.00
7297;BME280;40758;54.038;11.684;2024-01-25T09:46:37;101980.34;;;6.98;100.00
7297;BME280;40758;54.038;11.684;2024-01-25T09:49:04;101976.63;;;7.07;100.00
7297;BME280;40758;54.038;11.684;2024-01-25T09:51:38;101978.00;;;7.19;100.00
7297;BME280;40758;54.038;11.684;2024-01-25T09:54:05;101988.09;;;6.92;100.00
7297;BME280;40758;54.038;11.684;2024-01-25T09:56:33;101998.69;;;6.78;100.00
7297;BME280;40758;54.038;11.684;2024-01-25T09:59:00;101996.00;;;6.70;100.00
7297;BME280;40758;54.038;11.684;2024-01-25T10:01:28;102004.09;;;6.78;100.00
7297;BME280;40758;54.038;11.684;2024-01-25T10:03:56;102018.13;;;6.89;100.00
7297;BME280;40758;54.038;11.684;2024-01-25T10:06:23;102028.59;;;6.84;100.00
7297;BME280;40758;54.038;11.684;2024-01-25T10:08:52;102036.34;;;6.87;100.00
7297;BME280;40758;54.038;11.684;2024-01-25T10:11:19;102027.25;;;6.88;100.00
7297;BME280;40758;54.038;11.684;2024-01-25T10:13:47;102033.19;;;7.25;100.00
7297;BME280;40758;54.038;11.684;2024-01-25T10:16:14;102030.34;;;7.42;100.00
7297;BME280;40758;54.038;11.684;2024-01-25T10:18:43;102026.09;;;7.72;100.00
7297;BME280;40758;54.038;11.684;2024-01-25T10:21:12;102032.16;;;7.83;100.00
7297;BME280;40758;54.038;11.684;2024-01-25T10:23:39;102019.25;;;8.01;100.00
7297;BME280;40758;54.038;11.684;2024-01-25T10:26:10;102036.75;;;8.30;100.00
7297;BME280;40758;54.038;11.684;2024-01-25T10:28:37;102009.25;;;8.18;100.00
7297;BME280;40758;54.038;11.684;2024-01-25T10:31:05;102029.94;;;8.50;100.00
7297;BME280;40758;54.038;11.684;2024-01-25T10:33:34;102035.00;;;8.53;100.00
7297;BME280;40758;54.038;11.684;2024-01-25T10:36:04;102042.44;;;8.51;100.00
7297;BME280;40758;54.038;11.684;2024-01-25T10:38:35;102039.44;;;8.77;100.00
7297;BME280;40758;54.038;11.684;2024-01-25T10:41:05;102042.97;;;9.09;100.00
7297;BME280;40758;54.038;11.684;2024-01-25T10:43:32;102044.41;;;9.42;100.00
7297;BME280;40758;54.038;11.684;2024-01-25T10:46:00;102051.06;;;9.54;100.00
7297;BME280;40758;54.038;11.684;2024-01-25T10:48:30;102051.22;;;9.76;100.00
7297;BME280;40758;54.038;11.684;2024-01-25T10:50:58;102063.22;;;9.81;100.00
7297;BME280;40758;54.038;11.684;2024-01-25T10:53:31;102050.44;;;9.67;100.00
7297;BME280;40758;54.038;11.684;2024-01-25T10:55:59;102053.47;;;9.72;100.00
7297;BME280;40758;54.038;11.684;2024-01-25T10:58:35;102067.31;;;9.77;100.00
7297;BME280;40758;54.038;11.684;2024-01-25T11:01:08;102064.34;;;9.87;100.00
7297;BME280;40758;54.038;11.684;2024-01-25T11:03:42;102078.38;;;9.91;100.00
7297;BME280;40758;54.038;11.684;2024-01-25T11:06:11;102074.03;;;9.67;100.00
7297;BME280;40758;54.038;11.684;2024-01-25T11:08:39;102085.66;;;9.90;100.00
7297;BME280;40758;54.038;11.684;2024-01-25T11:11:07;102087.59;;;9.44;100.00
7297;BME280;40758;54.038;11.684;2024-01-25T11:13:38;102099.81;;;8.86;100.00
7297;BME280;40758;54.038;11.684;2024-01-25T11:16:15;102080.41;;;8.26;100.00
7297;BME280;40758;54.038;11.684;2024-01-25T11:18:49;102089.25;;;7.88;100.00
7297;BME280;40758;54.038;11.684;2024-01-25T11:21:26;102089.63;;;7.85;100.00
7297;BME280;40758;54.038;11.684;2024-01-25T11:24:01;102090.09;;;7.88;100.00
7297;BME280;40758;54.038;11.684;2024-01-25T11:26:29;102088.06;;;7.98;100.00
7297;BME280;40758;54.038;11.684;2024-01-25T11:28:56;102090.59;;;8.08;100.00
7297;BME280;40758;54.038;11.684;2024-01-25T11:31:23;102081.13;;;8.12;100.00
7297;BME280;40758;54.038;11.684;2024-01-25T11:33:51;102077.84;;;8.33;100.00
7297;BME280;40758;54.038;11.684;2024-01-25T11:36:20;102075.34;;;8.15;100.00
7297;BME280;40758;54.038;11.684;2024-01-25T11:38:47;102081.03;;;8.45;100.00
7297;BME280;40758;54.038;11.684;2024-01-25T11:41:14;102081.25;;;8.74;100.00
7297;BME280;40758;54.038;11.684;2024-01-25T11:43:41;102064.28;;;8.80;100.00
7297;BME280;40758;54.038;11.684;2024-01-25T11:46:10;102065.56;;;9.24;100.00
7297;BME280;40758;54.038;11.684;2024-01-25T11:48:43;102066.81;;;9.59;100.00
7297;BME280;40758;54.038;11.684;2024-01-25T11:51:10;102062.94;;;9.76;100.00
7297;BME280;40758;54.038;11.684;2024-01-25T11:53:41;102071.06;;;9.76;100.00
7297;BME280;40758;54.038;11.684;2024-01-25T11:56:17;102086.75;;;9.20;100.00
7297;BME280;40758;54.038;11.684;2024-01-25T11:58:46;102085.25;;;9.18;100.00
7297;BME280;40758;54.038;11.684;2024-01-25T12:01:15;102085.81;;;9.36;100.00
7297;BME280;40758;54.038;11.684;2024-01-25T12:03:42;102084.41;;;9.17;100.00
7297;BME280;40758;54.038;11.684;2024-01-25T12:06:12;102098.44;;;8.90;100.00
7297;BME280;40758;54.038;11.684;2024-01-25T12:08:40;102094.44;;;8.77;100.00
7297;BME280;40758;54.038;11.684;2024-01-25T12:11:09;102098.50;;;8.82;100.00
7297;BME280;40758;54.038;11.684;2024-01-25T12:13:39;102091.34;;;8.89;100.00
7297;BME280;40758;54.038;11.684;2024-01-25T12:16:07;102091.53;;;8.87;100.00
7297;BME280;40758;54.038;11.684;2024-01-25T12:18:34;102097.09;;;8.46;100.00
7297;BME280;40758;54.038;11.684;2024-01-25T12:21:03;102106.59;;;8.34;100.00
7297;BME280;40758;54.038;11.684;2024-01-25T12:23:32;102113.34;;;8.55;100.00
7297;BME280;40758;54.038;11.684;2024-01-25T12:26:00;102109.56;;;8.64;100.00
7297;BME280;40758;54.038;11.684;2024-01-25T12:28:28;102110.81;;;8.53;100.00
7297;BME280;40758;54.038;11.684;2024-01-25T12:31:08;102102.91;;;8.11;100.00
7297;BME280;40758;54.038;11.684;2024-01-25T12:33:35;102125.94;;;7.90;100.00
7297;BME280;40758;54.038;11.684;2024-01-25T12:36:03;102126.78;;;7.74;100.00
7297;BME280;40758;54.038;11.684;2024-01-25T12:38:31;102123.56;;;7.63;100.00
7297;BME280;40758;54.038;11.684;2024-01-25T12:41:01;102117.31;;;7.46;100.00
7297;BME280;40758;54.038;11.684;2024-01-25T12:43:30;102124.78;;;7.60;100.00
7297;BME280;40758;54.038;11.684;2024-01-25T12:45:58;102109.22;;;7.62;100.00
7297;BME280;40758;54.038;11.684;2024-01-25T12:48:42;102102.47;;;7.66;100.00
7297;BME280;40758;54.038;11.684;2024-01-25T12:51:10;102105.47;;;8.04;100.00
7297;BME280;40758;54.038;11.684;2024-01-25T12:53:37;102097.38;;;7.88;100.00